createdAt,value
2023-12-20T00:01:03.414Z,100725.38
2023-12-20T00:03:37.913Z,100726.22
2023-12-20T00:06:08.679Z,100722.72
2023-12-20T00:08:35.193Z,100727.22
2023-12-20T00:11:01.643Z,100724.56
2023-12-20T00:13:28.129Z,100724.59
2023-12-20T00:15:54.635Z,100721.00
2023-12-20T00:18:21.180Z,100719.25
2023-12-20T00:20:47.666Z,100720.06
2023-12-20T00:23:14.158Z,100727.03
2023-12-20T00:25:40.759Z,100733.13
2023-12-20T00:28:07.720Z,100733.13
2023-12-20T00:30:34.683Z,100746.22
2023-12-20T00:33:01.447Z,100741.81
2023-12-20T00:35:28.125Z,100748.84
2023-12-20T00:37:54.827Z,100754.97
2023-12-20T00:40:21.954Z,100749.66
2023-12-20T00:42:49.022Z,100757.56
2023-12-20T00:45:15.676Z,100743.53
2023-12-20T00:47:42.598Z,100741.06
2023-12-20T00:50:10.466Z,100757.56
2023-12-20T00:52:37.395Z,100753.31
2023-12-20T00:55:05.192Z,100749.81
2023-12-20T00:57:32.484Z,100755.00
2023-12-20T00:59:59.172Z,100753.31
2023-12-20T01:02:25.844Z,100752.41
2023-12-20T01:04:52.417Z,100753.41
2023-12-20T01:07:19.073Z,100757.66
2023-12-20T01:09:45.754Z,100759.38
2023-12-20T01:12:12.303Z,100761.97
2023-12-20T01:14:40.463Z,100763.75
2023-12-20T01:17:07.023Z,100755.13
2023-12-20T01:19:33.661Z,100773.38
2023-12-20T01:22:00.316Z,100768.97
2023-12-20T01:24:26.788Z,100766.44
2023-12-20T01:26:53.381Z,100770.00
2023-12-20T01:29:20.486Z,100763.94
2023-12-20T01:31:47.187Z,100758.66
2023-12-20T01:34:13.863Z,100772.69
2023-12-20T01:36:40.489Z,100763.97
2023-12-20T01:39:16.313Z,100777.94
2023-12-20T01:41:51.162Z,100777.94
2023-12-20T01:44:17.756Z,100776.22
2023-12-20T01:46:44.312Z,100791.00
2023-12-20T01:49:11.012Z,100779.59
2023-12-20T01:51:37.817Z,100787.47
2023-12-20T01:54:05.707Z,100790.06
2023-12-20T01:56:33.301Z,100792.78
2023-12-20T01:59:01.350Z,100793.72
2023-12-20T02:01:29.475Z,100796.25
2023-12-20T02:03:57.713Z,100801.47
2023-12-20T02:06:30.335Z,100796.25
2023-12-20T02:08:57.842Z,100805.91
2023-12-20T02:11:24.514Z,100809.38
2023-12-20T02:13:50.994Z,100805.91
2023-12-20T02:16:18.024Z,100802.44
2023-12-20T02:18:45.737Z,100801.59
2023-12-20T02:21:12.319Z,100797.19
2023-12-20T02:23:38.949Z,100790.28
2023-12-20T02:26:05.905Z,100802.41
2023-12-20T02:28:33.316Z,100799.94
2023-12-20T02:30:59.980Z,100806.88
2023-12-20T02:33:26.625Z,100806.00
2023-12-20T02:35:53.846Z,100806.94
2023-12-20T02:38:20.385Z,100812.09
2023-12-20T02:40:49.707Z,100813.03
2023-12-20T02:43:16.928Z,100817.38
2023-12-20T02:45:43.621Z,100810.34
2023-12-20T02:48:10.126Z,100812.94
2023-12-20T02:50:36.760Z,100812.03
2023-12-20T02:53:03.317Z,100819.84
2023-12-20T02:55:29.861Z,100814.69
2023-12-20T02:57:56.507Z,100802.34
2023-12-20T03:00:23.068Z,100812.81
2023-12-20T03:02:49.544Z,100803.25
2023-12-20T03:05:16.169Z,100802.34
2023-12-20T03:07:42.883Z,100813.66
2023-12-20T03:10:16.267Z,100826.78
2023-12-20T03:12:47.518Z,100812.97
2023-12-20T03:15:14.066Z,100820.72
2023-12-20T03:17:40.783Z,100821.59
2023-12-20T03:20:08.375Z,100810.25
2023-12-20T03:22:35.484Z,100825.94
2023-12-20T03:25:02.072Z,100808.44
2023-12-20T03:27:28.606Z,100816.19
2023-12-20T03:29:55.089Z,100817.25
2023-12-20T03:32:21.557Z,100812.06
2023-12-20T03:34:49.637Z,100814.69
2023-12-20T03:37:16.517Z,100800.63
2023-12-20T03:39:43.205Z,100802.47
2023-12-20T03:42:09.760Z,100792.97
2023-12-20T03:44:40.207Z,100793.81
2023-12-20T03:47:07.229Z,100790.38
2023-12-20T03:49:33.816Z,100800.75
2023-12-20T03:52:00.566Z,100797.25
2023-12-20T03:54:27.088Z,100804.19
2023-12-20T03:56:53.552Z,100805.19
2023-12-20T03:59:20.106Z,100811.28
2023-12-20T04:01:46.718Z,100810.38
2023-12-20T04:04:14.459Z,100804.19
2023-12-20T04:06:41.475Z,100808.53
2023-12-20T04:09:10.250Z,100813.84
2023-12-20T04:11:37.937Z,100809.53
2023-12-20T04:14:06.135Z,100805.06
2023-12-20T04:16:32.750Z,100799.00
2023-12-20T04:18:59.487Z,100798.13
2023-12-20T04:21:25.997Z,100796.44
2023-12-20T04:23:52.493Z,100799.22
2023-12-20T04:26:19.024Z,100808.72
2023-12-20T04:28:45.459Z,100810.56
2023-12-20T04:31:12.113Z,100812.25
2023-12-20T04:33:38.813Z,100811.41
2023-12-20T04:36:05.653Z,100811.38
2023-12-20T04:38:32.112Z,100813.97
2023-12-20T04:40:58.616Z,100812.16
2023-12-20T04:43:25.253Z,100816.53
2023-12-20T04:45:52.602Z,100819.22
2023-12-20T04:48:19.217Z,100818.28
2023-12-20T04:50:45.789Z,100820.03
2023-12-20T04:53:12.253Z,100820.00
2023-12-20T04:55:40.189Z,100812.25
2023-12-20T04:58:06.944Z,100819.19
2023-12-20T05:00:33.476Z,100825.28
2023-12-20T05:03:00.033Z,100822.56
2023-12-20T05:05:26.554Z,100811.41
2023-12-20T05:07:53.888Z,100805.25
2023-12-20T05:10:20.587Z,100802.63
2023-12-20T05:12:47.149Z,100819.19
2023-12-20T05:15:13.674Z,100807.91
2023-12-20T05:17:40.190Z,100812.25
2023-12-20T05:20:07.609Z,100813.13
2023-12-20T05:22:34.286Z,100815.66
2023-12-20T05:25:00.911Z,100818.34
2023-12-20T05:27:27.471Z,100812.22
2023-12-20T05:29:54.085Z,100826.09
2023-12-20T05:32:20.592Z,100814.81
2023-12-20T05:34:47.386Z,100818.31
2023-12-20T05:37:13.959Z,100823.50
2023-12-20T05:39:40.552Z,100827.84
2023-12-20T05:42:07.214Z,100811.34
2023-12-20T05:44:33.679Z,100826.91
2023-12-20T05:47:00.126Z,100839.09
2023-12-20T05:49:26.713Z,100825.97
2023-12-20T05:51:53.244Z,100818.16
2023-12-20T05:54:19.849Z,100810.50
2023-12-20T05:56:46.384Z,100813.13
2023-12-20T05:59:12.869Z,100815.66
2023-12-20T06:01:39.477Z,100813.84
2023-12-20T06:04:06.203Z,100814.66
2023-12-20T06:06:32.842Z,100816.50
2023-12-20T06:08:59.482Z,100818.25
2023-12-20T06:11:25.989Z,100820.88
2023-12-20T06:13:54.168Z,100824.34
2023-12-20T06:16:20.893Z,100821.72
2023-12-20T06:18:47.643Z,100822.66
2023-12-20T06:21:14.303Z,100827.03
2023-12-20T06:23:40.865Z,100826.97
2023-12-20T06:26:07.466Z,100826.94
2023-12-20T06:28:34.130Z,100819.94
2023-12-20T06:31:01.878Z,100826.06
2023-12-20T06:33:28.764Z,100819.94
2023-12-20T06:35:55.297Z,100835.66
2023-12-20T06:38:21.796Z,100830.41
2023-12-20T06:40:48.327Z,100836.47
2023-12-20T06:43:24.151Z,100831.31
2023-12-20T06:45:59.586Z,100831.28
2023-12-20T06:50:52.611Z,100824.31
2023-12-20T06:53:19.239Z,100829.50
2023-12-20T06:55:45.737Z,100831.25
2023-12-20T06:58:12.260Z,100835.66
2023-12-20T07:00:39.336Z,100834.66
2023-12-20T07:03:05.872Z,100826.06
2023-12-20T07:05:32.378Z,100819.97
2023-12-20T07:07:59.136Z,100832.16
2023-12-20T07:10:25.941Z,100824.34
2023-12-20T07:12:53.516Z,100822.56
2023-12-20T07:15:20.070Z,100818.19
2023-12-20T07:17:46.794Z,100819.91
2023-12-20T07:20:13.692Z,100818.22
2023-12-20T07:22:40.299Z,100819.91
2023-12-20T07:25:08.084Z,100815.63
2023-12-20T07:27:34.665Z,100815.56
2023-12-20T07:30:01.210Z,100825.16
2023-12-20T07:32:28.257Z,100830.41
2023-12-20T07:34:55.899Z,100832.00
2023-12-20T07:37:22.766Z,100822.41
2023-12-20T07:39:49.544Z,100827.69
2023-12-20T07:42:16.063Z,100814.59
2023-12-20T07:44:43.032Z,100824.16
2023-12-20T07:47:09.597Z,100821.63
2023-12-20T07:49:36.174Z,100831.16
2023-12-20T07:52:02.945Z,100840.69
2023-12-20T07:54:29.469Z,100825.09
2023-12-20T07:56:58.316Z,100837.13
2023-12-20T07:59:30.055Z,100836.31
2023-12-20T08:02:00.238Z,100823.34
2023-12-20T08:04:27.196Z,100826.84
2023-12-20T08:06:53.936Z,100825.19
2023-12-20T08:09:20.809Z,100820.72
2023-12-20T08:11:48.471Z,100822.41
2023-12-20T08:14:18.333Z,100831.06
2023-12-20T08:16:45.038Z,100825.00
2023-12-20T08:19:11.744Z,100837.19
2023-12-20T08:21:39.070Z,100823.19
2023-12-20T08:24:06.397Z,100827.53
2023-12-20T08:26:34.228Z,100821.44
2023-12-20T08:29:02.109Z,100820.56
2023-12-20T08:31:29.608Z,100833.59
2023-12-20T08:33:56.660Z,100827.66
2023-12-20T08:36:24.553Z,100831.97
2023-12-20T08:38:52.007Z,100830.22
2023-12-20T08:41:19.279Z,100830.13
2023-12-20T08:43:45.951Z,100838.06
2023-12-20T08:46:13.281Z,100831.13
2023-12-20T08:48:40.400Z,100842.41
2023-12-20T08:51:10.637Z,100851.97
2023-12-20T08:53:37.497Z,100841.50
2023-12-20T08:56:04.317Z,100843.28
2023-12-20T08:58:31.172Z,100842.47
2023-12-20T09:00:59.023Z,100845.97
2023-12-20T09:03:25.773Z,100851.25
2023-12-20T09:05:52.423Z,100847.81
2023-12-20T09:08:19.116Z,100840.00
2023-12-20T09:10:45.927Z,100835.56
2023-12-20T09:13:13.091Z,100833.81
2023-12-20T09:15:39.749Z,100830.28
2023-12-20T09:18:06.827Z,100840.75
2023-12-20T09:20:34.177Z,100832.94
2023-12-20T09:23:01.371Z,100832.06
2023-12-20T09:25:28.349Z,100828.53
2023-12-20T09:27:55.223Z,100838.16
2023-12-20T09:30:26.978Z,100837.31
2023-12-20T09:32:55.599Z,100834.78
2023-12-20T09:35:23.138Z,100842.53
2023-12-20T09:37:50.838Z,100833.75
2023-12-20T09:40:20.404Z,100828.53
2023-12-20T09:43:05.351Z,100827.56
2023-12-20T09:45:33.184Z,100827.63
2023-12-20T09:47:59.974Z,100828.63
2023-12-20T09:50:27.153Z,100827.69
2023-12-20T09:52:55.077Z,100831.16
2023-12-20T09:55:23.192Z,100825.91
2023-12-20T09:57:50.525Z,100820.56
2023-12-20T10:00:18.821Z,100823.13
2023-12-20T10:02:58.476Z,100824.09
2023-12-20T10:05:35.476Z,100816.31
2023-12-20T10:08:03.429Z,100832.00
2023-12-20T10:10:38.499Z,100826.88
2023-12-20T10:13:13.397Z,100814.75
2023-12-20T10:15:40.627Z,100825.16
2023-12-20T10:18:08.217Z,100819.94
2023-12-20T10:20:35.153Z,100819.06
2023-12-20T10:23:02.532Z,100814.72
2023-12-20T10:25:29.452Z,100809.38
2023-12-20T10:28:15.736Z,100809.41
2023-12-20T10:30:43.180Z,100812.06
2023-12-20T10:33:11.145Z,100805.91
2023-12-20T10:35:39.968Z,100792.84
2023-12-20T10:38:07.769Z,100789.34
2023-12-20T10:40:38.725Z,100784.09
2023-12-20T10:43:06.458Z,100791.91
2023-12-20T10:45:33.598Z,100784.13
2023-12-20T10:48:01.207Z,100788.50
2023-12-20T10:50:29.792Z,100789.31
2023-12-20T10:52:57.186Z,100788.47
2023-12-20T10:55:25.123Z,100793.50
2023-12-20T10:58:21.438Z,100788.50
2023-12-20T11:00:49.395Z,100784.19
2023-12-20T11:03:18.796Z,100776.56
2023-12-20T11:06:04.078Z,100786.78
2023-12-20T11:08:40.758Z,100788.53
2023-12-20T11:11:19.298Z,100791.31
2023-12-20T11:13:56.614Z,100791.13
2023-12-20T11:16:24.726Z,100798.16
2023-12-20T11:18:53.719Z,100791.19
2023-12-20T11:21:20.849Z,100780.75
2023-12-20T11:23:47.416Z,100786.84
2023-12-20T11:26:17.112Z,100780.78
2023-12-20T11:28:43.745Z,100761.56
2023-12-20T11:31:15.402Z,100764.25
2023-12-20T11:33:42.126Z,100771.13
2023-12-20T11:36:19.824Z,100764.28
2023-12-20T11:38:58.282Z,100772.91
2023-12-20T11:41:25.480Z,100765.06
2023-12-20T11:43:55.411Z,100756.25
2023-12-20T11:46:22.064Z,100766.81
2023-12-20T11:48:49.663Z,100765.84
2023-12-20T11:51:16.407Z,100759.03
2023-12-20T11:53:43.706Z,100754.63
2023-12-20T11:56:11.116Z,100753.72
2023-12-20T11:58:38.193Z,100746.78
2023-12-20T12:01:06.088Z,100741.63
2023-12-20T12:03:32.823Z,100742.47
2023-12-20T12:05:59.499Z,100748.44
2023-12-20T12:08:26.202Z,100747.63
2023-12-20T12:10:53.020Z,100743.28
2023-12-20T12:13:19.726Z,100739.72
2023-12-20T12:15:46.386Z,100737.16
2023-12-20T12:18:17.538Z,100742.44
2023-12-20T12:20:44.228Z,100727.63
2023-12-20T12:23:10.874Z,100736.31
2023-12-20T12:25:42.229Z,100731.13
2023-12-20T12:28:10.116Z,100738.97
2023-12-20T12:30:39.787Z,100721.44
2023-12-20T12:33:13.575Z,100725.78
2023-12-20T12:35:41.504Z,100713.50
2023-12-20T12:38:09.039Z,100711.91
2023-12-20T12:40:37.466Z,100716.22
2023-12-20T12:43:05.499Z,100711.88
2023-12-20T12:45:32.143Z,100714.47
2023-12-20T12:47:58.801Z,100707.50
2023-12-20T12:50:25.755Z,100705.88
2023-12-20T12:52:52.493Z,100713.66
2023-12-20T12:55:19.093Z,100704.00
2023-12-20T12:57:46.256Z,100692.81
2023-12-20T13:00:13.506Z,100700.66
2023-12-20T13:02:43.031Z,100704.06
2023-12-20T13:05:10.065Z,100704.00
2023-12-20T13:07:38.809Z,100701.59
2023-12-20T13:10:06.992Z,100680.75
2023-12-20T13:12:33.647Z,100677.41
2023-12-20T13:15:00.197Z,100669.44
2023-12-20T13:17:28.822Z,100670.31
2023-12-20T13:19:56.746Z,100658.94
2023-12-20T13:22:23.358Z,100666.75
2023-12-20T13:24:49.933Z,100660.59
2023-12-20T13:27:16.600Z,100657.06
2023-12-20T13:29:43.461Z,100653.56
2023-12-20T13:32:10.054Z,100633.72
2023-12-20T13:34:37.100Z,100637.13
2023-12-20T13:37:04.337Z,100635.44
2023-12-20T13:39:32.463Z,100632.78
2023-12-20T13:42:01.116Z,100620.56
2023-12-20T13:44:28.132Z,100623.31
2023-12-20T13:46:54.630Z,100626.69
2023-12-20T13:49:22.355Z,100622.53
2023-12-20T13:51:49.172Z,100628.44
2023-12-20T13:54:17.892Z,100619.69
2023-12-20T13:56:52.541Z,100623.28
2023-12-20T13:59:28.495Z,100613.75
2023-12-20T14:01:55.114Z,100611.97
2023-12-20T14:04:40.757Z,100605.81
2023-12-20T14:07:10.830Z,100615.41
2023-12-20T14:09:37.685Z,100617.13
2023-12-20T14:12:04.527Z,100611.91
2023-12-20T14:14:31.074Z,100614.66
2023-12-20T14:16:57.684Z,100620.69
2023-12-20T14:19:24.288Z,100619.72
2023-12-20T14:21:50.847Z,100606.00
2023-12-20T14:24:17.383Z,100607.69
2023-12-20T14:26:44.044Z,100599.94
2023-12-20T14:29:10.624Z,100577.25
2023-12-20T14:31:40.044Z,100585.94
2023-12-20T14:34:07.858Z,100581.63
2023-12-20T14:36:35.106Z,100595.38
2023-12-20T14:39:02.512Z,100598.78
2023-12-20T14:41:31.014Z,100599.66
2023-12-20T14:44:00.753Z,100605.81
2023-12-20T14:46:27.638Z,100595.31
2023-12-20T14:48:54.163Z,100596.16
2023-12-20T14:51:20.750Z,100597.03
2023-12-20T14:53:48.328Z,100607.47
2023-12-20T14:56:15.956Z,100607.41
2023-12-20T14:58:42.555Z,100609.13
2023-12-20T15:01:10.042Z,100600.44
2023-12-20T15:03:36.795Z,100599.56
2023-12-20T15:06:03.512Z,100602.94
2023-12-20T15:08:30.263Z,100590.75
2023-12-20T15:10:56.900Z,100592.44
2023-12-20T15:13:23.552Z,100594.22
2023-12-20T15:15:50.223Z,100600.97
2023-12-20T15:18:16.791Z,100594.03
2023-12-20T15:20:44.922Z,100590.47
2023-12-20T15:23:11.745Z,100597.41
2023-12-20T15:25:38.497Z,100598.47
2023-12-20T15:28:05.247Z,100597.44
2023-12-20T15:30:31.884Z,100595.78
2023-12-20T15:32:58.921Z,100598.47
2023-12-20T15:35:25.452Z,100600.13
2023-12-20T15:37:52.609Z,100599.13
2023-12-20T15:40:19.465Z,100599.91
2023-12-20T15:42:46.084Z,100588.72
2023-12-20T15:45:12.646Z,100576.47
2023-12-20T15:47:39.370Z,100583.34
2023-12-20T15:50:08.276Z,100585.16
2023-12-20T15:52:35.121Z,100584.22
2023-12-20T15:55:02.234Z,100585.88
2023-12-20T15:57:38.902Z,100592.03
2023-12-20T16:00:12.482Z,100583.44
2023-12-20T16:02:39.059Z,100585.00
2023-12-20T16:05:06.131Z,100582.53
2023-12-20T16:07:32.770Z,100586.88
2023-12-20T16:09:59.323Z,100584.94
2023-12-20T16:12:26.927Z,100583.50
2023-12-20T16:14:53.490Z,100591.09
2023-12-20T16:17:20.933Z,100573.00
2023-12-20T16:19:47.525Z,100585.06
2023-12-20T16:22:14.133Z,100574.44
2023-12-20T16:24:40.711Z,100587.69
2023-12-20T16:27:07.195Z,100579.63
2023-12-20T16:29:33.671Z,100571.75
2023-12-20T16:32:00.299Z,100569.94
2023-12-20T16:34:26.917Z,100566.56
2023-12-20T16:36:55.948Z,100563.81
2023-12-20T16:39:24.668Z,100554.34
2023-12-20T16:41:51.739Z,100563.19
2023-12-20T16:44:18.362Z,100558.09
2023-12-20T16:46:44.983Z,100556.31
2023-12-20T16:49:11.755Z,100543.94
2023-12-20T16:51:38.700Z,100561.25
2023-12-20T16:54:05.276Z,100552.63
2023-12-20T16:56:31.786Z,100550.00
2023-12-20T16:58:58.265Z,100551.88
2023-12-20T17:01:26.867Z,100557.19
2023-12-20T17:03:54.838Z,100567.66
2023-12-20T17:06:21.445Z,100552.75
2023-12-20T17:08:48.033Z,100543.19
2023-12-20T17:11:15.121Z,100531.69
2023-12-20T17:13:41.665Z,100531.81
2023-12-20T17:16:08.429Z,100532.81
2023-12-20T17:18:35.178Z,100529.41
2023-12-20T17:21:01.904Z,100534.56
2023-12-20T17:23:28.453Z,100537.97
2023-12-20T17:25:55.001Z,100522.31
2023-12-20T17:28:21.565Z,100525.94
2023-12-20T17:30:48.225Z,100513.69
2023-12-20T17:33:16.288Z,100518.78
2023-12-20T17:35:42.982Z,100512.81
2023-12-20T17:38:09.637Z,100511.78
2023-12-20T17:40:40.534Z,100491.94
2023-12-20T17:43:07.926Z,100505.75
2023-12-20T17:45:34.570Z,100503.13
2023-12-20T17:48:01.293Z,100501.28
2023-12-20T17:50:27.963Z,100494.31
2023-12-20T17:52:56.440Z,100491.03
2023-12-20T17:55:24.442Z,100493.56
2023-12-20T17:57:51.449Z,100485.81
2023-12-20T18:00:25.642Z,100475.50
2023-12-20T18:02:52.383Z,100469.41
2023-12-20T18:05:20.633Z,100476.28
2023-12-20T18:07:49.639Z,100463.25
2023-12-20T18:10:16.809Z,100463.28
2023-12-20T18:12:43.448Z,100452.72
2023-12-20T18:15:11.771Z,100458.75
2023-12-20T18:17:38.405Z,100442.91
2023-12-20T18:20:05.758Z,100451.66
2023-12-20T18:22:32.575Z,100444.69
2023-12-20T18:24:59.234Z,100457.03
2023-12-20T18:27:28.569Z,100445.56
2023-12-20T18:30:01.602Z,100447.31
2023-12-20T18:32:36.466Z,100438.44
2023-12-20T18:35:06.335Z,100433.94
2023-12-20T18:37:35.999Z,100435.66
2023-12-20T18:40:04.596Z,100434.53
2023-12-20T18:42:32.159Z,100427.78
2023-12-20T18:44:58.699Z,100429.44
2023-12-20T18:47:25.191Z,100426.25
2023-12-20T18:49:51.866Z,100410.16
2023-12-20T18:52:18.642Z,100402.34
2023-12-20T18:54:45.200Z,100392.25
2023-12-20T18:57:11.716Z,100394.91
2023-12-20T18:59:38.254Z,100392.38
2023-12-20T19:02:05.205Z,100390.59
2023-12-20T19:04:31.946Z,100382.47
2023-12-20T19:06:59.530Z,100376.50
2023-12-20T19:09:27.216Z,100392.31
2023-12-20T19:11:53.867Z,100380.13
2023-12-20T19:14:22.726Z,100375.78
2023-12-20T19:16:55.006Z,100370.28
2023-12-20T19:19:22.119Z,100377.31
2023-12-20T19:21:49.094Z,100369.34
2023-12-20T19:24:15.597Z,100356.22
2023-12-20T19:26:42.101Z,100358.00
2023-12-20T19:29:08.632Z,100361.59
2023-12-20T19:31:35.171Z,100341.63
2023-12-20T19:34:01.781Z,100342.50
2023-12-20T19:36:28.433Z,100346.50
2023-12-20T19:38:54.990Z,100354.16
2023-12-20T19:41:21.505Z,100364.66
2023-12-20T19:43:49.222Z,100341.13
2023-12-20T19:46:15.900Z,100331.63
2023-12-20T19:48:42.852Z,100331.53
2023-12-20T19:51:09.481Z,100328.94
2023-12-20T19:53:36.127Z,100319.19
2023-12-20T19:56:02.658Z,100317.81
2023-12-20T19:58:29.288Z,100324.28
2023-12-20T20:00:56.370Z,100314.13
2023-12-20T20:03:23.487Z,100305.13
2023-12-20T20:05:50.990Z,100306.78
2023-12-20T20:08:17.765Z,100302.47
2023-12-20T20:10:44.308Z,100304.94
2023-12-20T20:13:11.557Z,100287.63
2023-12-20T20:15:38.873Z,100298.97
2023-12-20T20:18:06.095Z,100289.38
2023-12-20T20:20:32.787Z,100295.50
2023-12-20T20:22:59.284Z,100288.38
2023-12-20T20:25:28.743Z,100288.16
2023-12-20T20:27:55.759Z,100289.63
2023-12-20T20:30:22.493Z,100261.81
2023-12-20T20:32:51.921Z,100250.63
2023-12-20T20:35:21.518Z,100248.88
2023-12-20T20:37:48.467Z,100266.41
2023-12-20T20:40:18.933Z,100254.38
2023-12-20T20:42:48.639Z,100249.06
2023-12-20T20:45:16.501Z,100246.78
2023-12-20T20:47:43.531Z,100238.25
2023-12-20T20:50:11.434Z,100251.19
2023-12-20T20:52:39.003Z,100260.75
2023-12-20T20:55:06.378Z,100256.91
2023-12-20T20:57:33.038Z,100253.84
2023-12-20T20:59:59.577Z,100248.75
2023-12-20T21:02:26.268Z,100264.28
2023-12-20T21:04:52.867Z,100243.09
2023-12-20T21:07:19.563Z,100252.72
2023-12-20T21:09:46.388Z,100254.38
2023-12-20T21:12:12.895Z,100251.03
2023-12-20T21:14:39.608Z,100245.53
2023-12-20T21:17:06.121Z,100237.78
2023-12-20T21:19:33.138Z,100229.91
2023-12-20T21:22:00.279Z,100237.19
2023-12-20T21:24:27.334Z,100228.59
2023-12-20T21:26:53.831Z,100234.47
2023-12-20T21:29:20.347Z,100224.28
2023-12-20T21:31:46.923Z,100228.69
2023-12-20T21:34:13.531Z,100221.53
2023-12-20T21:36:40.123Z,100210.34
2023-12-20T21:39:08.500Z,100198.09
2023-12-20T21:41:35.899Z,100210.00
2023-12-20T21:44:02.441Z,100204.59
2023-12-20T21:46:30.593Z,100199.59
2023-12-20T21:48:57.291Z,100172.88
2023-12-20T21:51:23.909Z,100179.28
2023-12-20T21:53:50.511Z,100175.41
2023-12-20T21:56:17.112Z,100173.09
2023-12-20T21:58:45.676Z,100171.97
2023-12-20T22:01:13.158Z,100169.31
2023-12-20T22:03:41.729Z,100156.97
2023-12-20T22:06:09.063Z,100159.94
2023-12-20T22:08:35.658Z,100162.63
2023-12-20T22:11:02.520Z,100156.47
2023-12-20T22:13:31.902Z,100154.13
2023-12-20T22:15:58.849Z,100139.03
2023-12-20T22:18:25.546Z,100142.81
2023-12-20T22:20:53.505Z,100159.00
2023-12-20T22:23:20.945Z,100156.06
2023-12-20T22:25:47.625Z,100137.25
2023-12-20T22:28:14.588Z,100132.19
2023-12-20T22:30:42.264Z,100161.47
2023-12-20T22:33:08.840Z,100142.22
2023-12-20T22:35:35.360Z,100125.19
2023-12-20T22:38:02.430Z,100120.59
2023-12-20T22:40:29.199Z,100137.03
2023-12-20T22:42:55.801Z,100136.78
2023-12-20T22:45:22.510Z,100153.44
2023-12-20T22:47:49.581Z,100143.03
2023-12-20T22:50:16.753Z,100140.16
2023-12-20T22:52:43.409Z,100130.22
2023-12-20T22:55:10.428Z,100134.88
2023-12-20T22:57:36.981Z,100129.78
2023-12-20T23:00:04.706Z,100122.81
2023-12-20T23:02:31.178Z,100120.91
2023-12-20T23:04:57.717Z,100117.53
2023-12-20T23:07:24.818Z,100129.03
2023-12-20T23:09:53.381Z,100114.50
2023-12-20T23:12:20.144Z,100112.25
2023-12-20T23:14:46.756Z,100107.06
2023-12-20T23:17:13.297Z,100099.66
2023-12-20T23:19:39.882Z,100093.75
2023-12-20T23:22:06.499Z,100103.19
2023-12-20T23:24:33.002Z,100107.22
2023-12-20T23:26:59.506Z,100095.16
2023-12-20T23:29:26.120Z,100095.34
2023-12-20T23:31:52.651Z,100068.38
2023-12-20T23:34:19.199Z,100068.28
2023-12-20T23:36:45.836Z,100069.81
2023-12-20T23:39:12.361Z,100066.16
2023-12-20T23:41:39.121Z,100071.56
2023-12-20T23:44:05.832Z,100058.50
2023-12-20T23:46:32.401Z,100050.28
2023-12-20T23:48:59.061Z,100053.28
2023-12-20T23:51:25.688Z,100034.66
2023-12-20T23:53:52.163Z,100020.97
2023-12-20T23:56:27.485Z,100013.94
2023-12-20T23:59:03.967Z,100022.00
